sensor_id;sensor_type;location;lat;lon;timestamp;P1;durP1;ratioP1;P2;durP2;ratioP2
13032;SDS011;6583;42.632;23.298;2023-09-19T00:00:19;10.65;;;8.68;;
13032;SDS011;6583;42.632;23.298;2023-09-19T00:02:53;8.77;;;7.97;;
13032;SDS011;6583;42.632;23.298;2023-09-19T00:05:19;8.98;;;8.18;;
13032;SDS011;6583;42.632;23.298;2023-09-19T00:07:49;9.25;;;8.35;;
13032;SDS011;6583;42.632;23.298;2023-09-19T00:10:19;9.85;;;8.95;;
13032;SDS011;6583;42.632;23.298;2023-09-19T00:12:45;9.32;;;8.52;;
13032;SDS011;6583;42.632;23.298;2023-09-19T00:15:12;8.88;;;7.97;;
13032;SDS011;6583;42.632;23.298;2023-09-19T00:17:42;8.93;;;8.02;;
13032;SDS011;6583;42.632;23.298;2023-09-19T00:20:11;8.88;;;8.10;;
13032;SDS011;6583;42.632;23.298;2023-09-19T00:22:39;9.18;;;8.25;;
13032;SDS011;6583;42.632;23.298;2023-09-19T00:25:07;8.95;;;8.05;;
13032;SDS011;6583;42.632;23.298;2023-09-19T00:27:37;8.77;;;7.88;;
13032;SDS011;6583;42.632;23.298;2023-09-19T00:30:07;9.18;;;8.32;;
13032;SDS011;6583;42.632;23.298;2023-09-19T00:32:39;9.18;;;8.38;;
13032;SDS011;6583;42.632;23.298;2023-09-19T00:35:06;8.65;;;7.85;;
13032;SDS011;6583;42.632;23.298;2023-09-19T00:37:36;9.10;;;8.00;;
13032;SDS011;6583;42.632;23.298;2023-09-19T00:40:05;9.27;;;8.02;;
13032;SDS011;6583;42.632;23.298;2023-09-19T00:42:35;8.82;;;8.02;;
13032;SDS011;6583;42.632;23.298;2023-09-19T00:45:03;9.45;;;8.52;;
13032;SDS011;6583;42.632;23.298;2023-09-19T00:47:31;9.43;;;8.38;;
13032;SDS011;6583;42.632;23.298;2023-09-19T00:49:58;8.55;;;7.75;;
13032;SDS011;6583;42.632;23.298;2023-09-19T00:52:24;8.73;;;7.93;;
13032;SDS011;6583;42.632;23.298;2023-09-19T00:54:54;8.80;;;7.90;;
13032;SDS011;6583;42.632;23.298;2023-09-19T00:57:21;8.75;;;7.95;;
13032;SDS011;6583;42.632;23.298;2023-09-19T00:59:48;8.38;;;7.57;;
13032;SDS011;6583;42.632;23.298;2023-09-19T01:02:20;8.48;;;7.75;;
13032;SDS011;6583;42.632;23.298;2023-09-19T01:04:47;9.70;;;8.48;;
13032;SDS011;6583;42.632;23.298;2023-09-19T01:07:14;8.70;;;7.90;;
13032;SDS011;6583;42.632;23.298;2023-09-19T01:09:41;9.85;;;8.90;;
13032;SDS011;6583;42.632;23.298;2023-09-19T01:12:10;9.10;;;8.18;;
13032;SDS011;6583;42.632;23.298;2023-09-19T01:14:44;9.30;;;8.40;;
13032;SDS011;6583;42.632;23.298;2023-09-19T01:17:23;9.03;;;8.20;;
13032;SDS011;6583;42.632;23.298;2023-09-19T01:23:00;9.90;;;8.90;;
13032;SDS011;6583;42.632;23.298;2023-09-19T01:25:50;9.77;;;8.87;;
13032;SDS011;6583;42.632;23.298;2023-09-19T01:28:34;9.57;;;8.57;;
13032;SDS011;6583;42.632;23.298;2023-09-19T01:31:13;9.40;;;8.50;;
13032;SDS011;6583;42.632;23.298;2023-09-19T01:33:53;10.10;;;8.60;;
13032;SDS011;6583;42.632;23.298;2023-09-19T01:36:24;9.83;;;8.93;;
13032;SDS011;6583;42.632;23.298;2023-09-19T01:38:55;9.20;;;8.30;;
13032;SDS011;6583;42.632;23.298;2023-09-19T01:41:30;9.57;;;8.57;;
13032;SDS011;6583;42.632;23.298;2023-09-19T01:44:06;9.73;;;8.77;;
13032;SDS011;6583;42.632;23.298;2023-09-19T01:46:39;8.87;;;8.07;;
13032;SDS011;6583;42.632;23.298;2023-09-19T01:49:11;8.73;;;7.93;;
13032;SDS011;6583;42.632;23.298;2023-09-19T01:51:56;9.10;;;8.30;;
13032;SDS011;6583;42.632;23.298;2023-09-19T01:54:32;8.57;;;7.77;;
13032;SDS011;6583;42.632;23.298;2023-09-19T01:57:03;9.67;;;7.90;;
13032;SDS011;6583;42.632;23.298;2023-09-19T01:59:36;9.23;;;8.23;;
13032;SDS011;6583;42.632;23.298;2023-09-19T02:02:12;8.90;;;8.00;;
13032;SDS011;6583;42.632;23.298;2023-09-19T02:04:41;9.17;;;8.17;;
13032;SDS011;6583;42.632;23.298;2023-09-19T02:07:08;8.73;;;7.93;;
13032;SDS011;6583;42.632;23.298;2023-09-19T02:09:35;9.17;;;8.27;;
13032;SDS011;6583;42.632;23.298;2023-09-19T02:12:04;9.70;;;7.97;;
13032;SDS011;6583;42.632;23.298;2023-09-19T02:14:32;8.90;;;7.50;;
13032;SDS011;6583;42.632;23.298;2023-09-19T02:17:01;7.97;;;7.23;;
13032;SDS011;6583;42.632;23.298;2023-09-19T02:19:30;8.87;;;8.00;;
13032;SDS011;6583;42.632;23.298;2023-09-19T02:21:58;10.13;;;7.63;;
13032;SDS011;6583;42.632;23.298;2023-09-19T02:24:26;9.23;;;8.33;;
13032;SDS011;6583;42.632;23.298;2023-09-19T02:26:53;8.80;;;8.03;;
13032;SDS011;6583;42.632;23.298;2023-09-19T02:29:20;8.87;;;8.07;;
13032;SDS011;6583;42.632;23.298;2023-09-19T02:31:47;8.57;;;7.87;;
13032;SDS011;6583;42.632;23.298;2023-09-19T02:34:14;9.67;;;7.90;;
13032;SDS011;6583;42.632;23.298;2023-09-19T02:36:43;9.13;;;7.77;;
13032;SDS011;6583;42.632;23.298;2023-09-19T02:39:10;8.97;;;7.60;;
13032;SDS011;6583;42.632;23.298;2023-09-19T02:41:37;8.80;;;8.00;;
13032;SDS011;6583;42.632;23.298;2023-09-19T02:44:04;9.03;;;7.93;;
13032;SDS011;6583;42.632;23.298;2023-09-19T02:46:32;8.23;;;7.37;;
13032;SDS011;6583;42.632;23.298;2023-09-19T02:49:01;8.90;;;7.87;;
13032;SDS011;6583;42.632;23.298;2023-09-19T02:51:30;9.27;;;8.43;;
13032;SDS011;6583;42.632;23.298;2023-09-19T02:53:58;9.10;;;8.20;;
13032;SDS011;6583;42.632;23.298;2023-09-19T02:56:25;8.87;;;8.07;;
13032;SDS011;6583;42.632;23.298;2023-09-19T02:58:52;9.27;;;8.37;;
13032;SDS011;6583;42.632;23.298;2023-09-19T03:01:20;8.90;;;8.10;;
13032;SDS011;6583;42.632;23.298;2023-09-19T03:03:47;9.20;;;8.30;;
13032;SDS011;6583;42.632;23.298;2023-09-19T03:06:14;8.80;;;8.10;;
13032;SDS011;6583;42.632;23.298;2023-09-19T03:08:41;8.83;;;8.03;;
13032;SDS011;6583;42.632;23.298;2023-09-19T03:11:10;8.93;;;8.13;;
13032;SDS011;6583;42.632;23.298;2023-09-19T03:13:38;9.80;;;8.77;;
13032;SDS011;6583;42.632;23.298;2023-09-19T03:16:05;8.83;;;8.03;;
13032;SDS011;6583;42.632;23.298;2023-09-19T03:18:31;8.90;;;8.10;;
13032;SDS011;6583;42.632;23.298;2023-09-19T03:20:59;9.33;;;8.30;;
13032;SDS011;6583;42.632;23.298;2023-09-19T03:23:26;10.37;;;9.30;;
13032;SDS011;6583;42.632;23.298;2023-09-19T03:25:54;9.50;;;8.60;;
13032;SDS011;6583;42.632;23.298;2023-09-19T03:28:22;11.13;;;8.53;;
13032;SDS011;6583;42.632;23.298;2023-09-19T03:30:57;9.33;;;8.43;;
13032;SDS011;6583;42.632;23.298;2023-09-19T03:33:25;9.20;;;8.40;;
13032;SDS011;6583;42.632;23.298;2023-09-19T03:35:52;9.43;;;8.63;;
13032;SDS011;6583;42.632;23.298;2023-09-19T03:38:19;9.77;;;8.60;;
13032;SDS011;6583;42.632;23.298;2023-09-19T03:40:46;9.47;;;8.57;;
13032;SDS011;6583;42.632;23.298;2023-09-19T03:43:13;9.40;;;8.50;;
13032;SDS011;6583;42.632;23.298;2023-09-19T03:45:42;9.67;;;8.87;;
13032;SDS011;6583;42.632;23.298;2023-09-19T03:48:08;9.67;;;8.67;;
13032;SDS011;6583;42.632;23.298;2023-09-19T03:50:35;9.20;;;8.30;;
13032;SDS011;6583;42.632;23.298;2023-09-19T03:53:02;9.13;;;8.23;;
13032;SDS011;6583;42.632;23.298;2023-09-19T03:55:30;8.70;;;7.90;;
13032;SDS011;6583;42.632;23.298;2023-09-19T03:57:57;9.30;;;8.10;;
13032;SDS011;6583;42.632;23.298;2023-09-19T04:00:24;9.60;;;8.70;;
13032;SDS011;6583;42.632;23.298;2023-09-19T04:02:52;9.10;;;8.23;;
13032;SDS011;6583;42.632;23.298;2023-09-19T04:05:21;8.17;;;7.53;;
13032;SDS011;6583;42.632;23.298;2023-09-19T04:07:48;8.60;;;7.80;;
13032;SDS011;6583;42.632;23.298;2023-09-19T04:10:15;8.77;;;7.50;;
13032;SDS011;6583;42.632;23.298;2023-09-19T04:12:50;8.80;;;7.90;;
13032;SDS011;6583;42.632;23.298;2023-09-19T04:15:18;7.60;;;6.87;;
13032;SDS011;6583;42.632;23.298;2023-09-19T04:17:45;8.13;;;7.33;;
13032;SDS011;6583;42.632;23.298;2023-09-19T04:20:13;9.13;;;8.07;;
13032;SDS011;6583;42.632;23.298;2023-09-19T04:22:40;8.50;;;7.70;;
13032;SDS011;6583;42.632;23.298;2023-09-19T04:25:06;8.33;;;7.43;;
13032;SDS011;6583;42.632;23.298;2023-09-19T04:27:34;8.47;;;7.67;;
13032;SDS011;6583;42.632;23.298;2023-09-19T04:30:00;8.40;;;7.40;;
13032;SDS011;6583;42.632;23.298;2023-09-19T04:32:34;8.90;;;8.00;;
13032;SDS011;6583;42.632;23.298;2023-09-19T04:35:03;8.83;;;8.00;;
13032;SDS011;6583;42.632;23.298;2023-09-19T04:37:32;8.60;;;7.67;;
13032;SDS011;6583;42.632;23.298;2023-09-19T04:40:00;8.57;;;7.77;;
13032;SDS011;6583;42.632;23.298;2023-09-19T04:42:29;8.80;;;7.90;;
13032;SDS011;6583;42.632;23.298;2023-09-19T04:44:56;8.50;;;7.67;;
13032;SDS011;6583;42.632;23.298;2023-09-19T04:47:24;7.83;;;7.03;;
13032;SDS011;6583;42.632;23.298;2023-09-19T04:49:51;8.73;;;7.83;;
13032;SDS011;6583;42.632;23.298;2023-09-19T04:52:18;8.37;;;7.63;;
13032;SDS011;6583;42.632;23.298;2023-09-19T04:54:46;8.60;;;7.80;;
13032;SDS011;6583;42.632;23.298;2023-09-19T04:57:13;9.17;;;8.13;;
13032;SDS011;6583;42.632;23.298;2023-09-19T04:59:40;8.67;;;7.80;;
13032;SDS011;6583;42.632;23.298;2023-09-19T05:02:07;17.60;;;8.37;;
13032;SDS011;6583;42.632;23.298;2023-09-19T05:04:34;12.90;;;8.77;;
13032;SDS011;6583;42.632;23.298;2023-09-19T05:07:01;9.87;;;7.77;;
13032;SDS011;6583;42.632;23.298;2023-09-19T05:09:29;11.07;;;9.70;;
13032;SDS011;6583;42.632;23.298;2023-09-19T05:11:59;15.63;;;10.00;;
13032;SDS011;6583;42.632;23.298;2023-09-19T05:14:26;10.93;;;9.83;;
13032;SDS011;6583;42.632;23.298;2023-09-19T05:16:53;11.03;;;9.83;;
13032;SDS011;6583;42.632;23.298;2023-09-19T05:19:19;9.40;;;8.50;;
13032;SDS011;6583;42.632;23.298;2023-09-19T05:21:46;15.17;;;10.27;;
13032;SDS011;6583;42.632;23.298;2023-09-19T05:24:14;14.70;;;9.77;;
13032;SDS011;6583;42.632;23.298;2023-09-19T05:26:42;10.83;;;9.07;;
13032;SDS011;6583;42.632;23.298;2023-09-19T05:29:10;10.90;;;9.73;;
13032;SDS011;6583;42.632;23.298;2023-09-19T05:31:37;9.13;;;8.23;;
13032;SDS011;6583;42.632;23.298;2023-09-19T05:34:06;10.80;;;8.83;;
13032;SDS011;6583;42.632;23.298;2023-09-19T05:36:32;10.60;;;9.20;;
13032;SDS011;6583;42.632;23.298;2023-09-19T05:38:59;8.68;;;7.88;;
13032;SDS011;6583;42.632;23.298;2023-09-19T05:41:26;8.98;;;8.07;;
13032;SDS011;6583;42.632;23.298;2023-09-19T05:43:53;11.18;;;9.05;;
13032;SDS011;6583;42.632;23.298;2023-09-19T05:46:21;10.57;;;9.05;;
13032;SDS011;6583;42.632;23.298;2023-09-19T05:48:48;11.37;;;9.40;;
13032;SDS011;6583;42.632;23.298;2023-09-19T05:51:15;11.32;;;9.85;;
13032;SDS011;6583;42.632;23.298;2023-09-19T05:53:43;11.87;;;10.67;;
13032;SDS011;6583;42.632;23.298;2023-09-19T05:56:09;17.73;;;13.40;;
13032;SDS011;6583;42.632;23.298;2023-09-19T05:58:36;15.40;;;12.80;;
13032;SDS011;6583;42.632;23.298;2023-09-19T06:01:03;15.77;;;13.73;;
13032;SDS011;6583;42.632;23.298;2023-09-19T06:03:33;14.60;;;12.57;;
13032;SDS011;6583;42.632;23.298;2023-09-19T06:06:00;14.00;;;12.43;;
13032;SDS011;6583;42.632;23.298;2023-09-19T06:08:27;14.80;;;13.27;;
13032;SDS011;6583;42.632;23.298;2023-09-19T06:10:56;16.02;;;11.80;;
13032;SDS011;6583;42.632;23.298;2023-09-19T06:13:23;12.80;;;11.10;;
13032;SDS011;6583;42.632;23.298;2023-09-19T06:15:51;13.55;;;11.65;;
13032;SDS011;6583;42.632;23.298;2023-09-19T06:18:19;12.40;;;11.07;;
13032;SDS011;6583;42.632;23.298;2023-09-19T06:20:47;13.27;;;10.60;;
13032;SDS011;6583;42.632;23.298;2023-09-19T06:23:16;11.68;;;10.32;;
13032;SDS011;6583;42.632;23.298;2023-09-19T06:25:45;15.27;;;11.15;;
13032;SDS011;6583;42.632;23.298;2023-09-19T06:28:11;12.88;;;11.07;;
13032;SDS011;6583;42.632;23.298;2023-09-19T06:30:38;13.13;;;10.82;;
13032;SDS011;6583;42.632;23.298;2023-09-19T06:33:06;11.40;;;10.18;;
13032;SDS011;6583;42.632;23.298;2023-09-19T06:35:34;13.30;;;10.52;;
13032;SDS011;6583;42.632;23.298;2023-09-19T06:38:03;12.48;;;10.18;;
13032;SDS011;6583;42.632;23.298;2023-09-19T06:40:30;12.05;;;9.63;;
13032;SDS011;6583;42.632;23.298;2023-09-19T06:42:57;13.35;;;9.68;;
13032;SDS011;6583;42.632;23.298;2023-09-19T06:45:27;11.85;;;9.10;;
13032;SDS011;6583;42.632;23.298;2023-09-19T06:47:54;9.80;;;8.05;;
13032;SDS011;6583;42.632;23.298;2023-09-19T06:50:22;10.57;;;7.93;;
13032;SDS011;6583;42.632;23.298;2023-09-19T06:52:50;9.45;;;7.20;;
13032;SDS011;6583;42.632;23.298;2023-09-19T06:55:20;9.73;;;7.72;;
13032;SDS011;6583;42.632;23.298;2023-09-19T06:57:50;9.45;;;7.55;;
13032;SDS011;6583;42.632;23.298;2023-09-19T07:00:19;11.00;;;7.13;;
13032;SDS011;6583;42.632;23.298;2023-09-19T07:02:54;12.73;;;7.68;;
13032;SDS011;6583;42.632;23.298;2023-09-19T07:05:21;12.18;;;7.50;;
13032;SDS011;6583;42.632;23.298;2023-09-19T07:07:48;9.35;;;7.28;;
13032;SDS011;6583;42.632;23.298;2023-09-19T07:10:15;8.00;;;7.07;;
13032;SDS011;6583;42.632;23.298;2023-09-19T07:12:43;11.48;;;7.40;;
13032;SDS011;6583;42.632;23.298;2023-09-19T07:15:09;11.90;;;7.55;;
13032;SDS011;6583;42.632;23.298;2023-09-19T07:17:36;9.75;;;6.97;;
13032;SDS011;6583;42.632;23.298;2023-09-19T07:20:03;7.93;;;7.13;;
13032;SDS011;6583;42.632;23.298;2023-09-19T07:22:33;9.13;;;8.02;;
13032;SDS011;6583;42.632;23.298;2023-09-19T07:25:01;9.55;;;7.30;;
13032;SDS011;6583;42.632;23.298;2023-09-19T07:27:28;10.57;;;7.88;;
13032;SDS011;6583;42.632;23.298;2023-09-19T07:29:56;12.13;;;7.63;;
13032;SDS011;6583;42.632;23.298;2023-09-19T07:32:24;11.30;;;8.27;;
13032;SDS011;6583;42.632;23.298;2023-09-19T07:34:50;9.32;;;7.57;;
13032;SDS011;6583;42.632;23.298;2023-09-19T07:37:17;11.73;;;7.90;;
13032;SDS011;6583;42.632;23.298;2023-09-19T07:39:44;12.55;;;7.95;;
13032;SDS011;6583;42.632;23.298;2023-09-19T07:42:10;8.02;;;7.07;;
13032;SDS011;6583;42.632;23.298;2023-09-19T07:44:42;9.98;;;7.55;;
13032;SDS011;6583;42.632;23.298;2023-09-19T07:47:14;9.57;;;7.25;;
13032;SDS011;6583;42.632;23.298;2023-09-19T07:49:41;11.75;;;7.47;;
13032;SDS011;6583;42.632;23.298;2023-09-19T07:52:08;12.25;;;7.35;;
13032;SDS011;6583;42.632;23.298;2023-09-19T07:54:35;11.13;;;7.97;;
13032;SDS011;6583;42.632;23.298;2023-09-19T07:57:04;11.30;;;7.88;;
13032;SDS011;6583;42.632;23.298;2023-09-19T07:59:30;11.10;;;7.90;;
13032;SDS011;6583;42.632;23.298;2023-09-19T08:01:57;9.15;;;8.25;;
13032;SDS011;6583;42.632;23.298;2023-09-19T08:04:25;9.43;;;7.78;;
13032;SDS011;6583;42.632;23.298;2023-09-19T08:06:52;12.73;;;7.53;;
13032;SDS011;6583;42.632;23.298;2023-09-19T08:09:20;9.25;;;8.13;;
13032;SDS011;6583;42.632;23.298;2023-09-19T08:11:47;10.90;;;8.30;;
13032;SDS011;6583;42.632;23.298;2023-09-19T08:14:15;11.68;;;7.78;;
13032;SDS011;6583;42.632;23.298;2023-09-19T08:16:42;12.60;;;7.95;;
13032;SDS011;6583;42.632;23.298;2023-09-19T08:19:09;15.05;;;8.18;;
13032;SDS011;6583;42.632;23.298;2023-09-19T08:21:37;10.52;;;8.07;;
13032;SDS011;6583;42.632;23.298;2023-09-19T08:24:04;11.90;;;8.35;;
13032;SDS011;6583;42.632;23.298;2023-09-19T08:26:31;12.75;;;7.70;;
13032;SDS011;6583;42.632;23.298;2023-09-19T08:28:58;9.32;;;8.18;;
13032;SDS011;6583;42.632;23.298;2023-09-19T08:31:29;9.68;;;7.43;;
13032;SDS011;6583;42.632;23.298;2023-09-19T08:33:56;9.88;;;7.90;;
13032;SDS011;6583;42.632;23.298;2023-09-19T08:36:23;10.10;;;7.00;;
13032;SDS011;6583;42.632;23.298;2023-09-19T08:38:51;8.93;;;7.53;;
13032;SDS011;6583;42.632;23.298;2023-09-19T08:41:17;13.73;;;7.90;;
13032;SDS011;6583;42.632;23.298;2023-09-19T08:43:44;10.43;;;7.47;;
13032;SDS011;6583;42.632;23.298;2023-09-19T08:46:14;11.93;;;8.23;;
13032;SDS011;6583;42.632;23.298;2023-09-19T08:48:44;17.88;;;8.63;;
13032;SDS011;6583;42.632;23.298;2023-09-19T08:51:16;9.35;;;8.30;;
13032;SDS011;6583;42.632;23.298;2023-09-19T08:53:47;8.90;;;7.50;;
13032;SDS011;6583;42.632;23.298;2023-09-19T08:56:25;10.15;;;8.00;;
13032;SDS011;6583;42.632;23.298;2023-09-19T08:58:53;10.00;;;8.38;;
13032;SDS011;6583;42.632;23.298;2023-09-19T09:01:23;10.35;;;7.57;;
13032;SDS011;6583;42.632;23.298;2023-09-19T09:03:53;9.82;;;7.30;;
13032;SDS011;6583;42.632;23.298;2023-09-19T09:06:22;14.02;;;8.05;;
13032;SDS011;6583;42.632;23.298;2023-09-19T09:08:50;10.75;;;7.60;;
13032;SDS011;6583;42.632;23.298;2023-09-19T09:11:18;10.50;;;7.78;;
13032;SDS011;6583;42.632;23.298;2023-09-19T09:13:46;10.63;;;7.97;;
13032;SDS011;6583;42.632;23.298;2023-09-19T09:16:13;9.27;;;8.07;;
13032;SDS011;6583;42.632;23.298;2023-09-19T09:18:42;9.55;;;7.78;;
13032;SDS011;6583;42.632;23.298;2023-09-19T09:21:09;10.43;;;7.85;;
13032;SDS011;6583;42.632;23.298;2023-09-19T09:23:36;11.35;;;8.10;;
13032;SDS011;6583;42.632;23.298;2023-09-19T09:26:05;8.57;;;7.63;;
13032;SDS011;6583;42.632;23.298;2023-09-19T09:28:32;11.38;;;8.10;;
13032;SDS011;6583;42.632;23.298;2023-09-19T09:31:00;9.93;;;7.68;;
13032;SDS011;6583;42.632;23.298;2023-09-19T09:33:33;12.30;;;7.78;;
13032;SDS011;6583;42.632;23.298;2023-09-19T09:36:01;10.88;;;7.72;;
13032;SDS011;6583;42.632;23.298;2023-09-19T09:38:30;13.90;;;7.75;;
13032;SDS011;6583;42.632;23.298;2023-09-19T09:41:11;11.93;;;7.50;;
13032;SDS011;6583;42.632;23.298;2023-09-19T09:43:41;10.23;;;8.40;;
13032;SDS011;6583;42.632;23.298;2023-09-19T09:46:12;8.90;;;7.55;;
13032;SDS011;6583;42.632;23.298;2023-09-19T09:49:12;11.57;;;8.07;;
13032;SDS011;6583;42.632;23.298;2023-09-19T09:51:44;13.55;;;8.43;;
13032;SDS011;6583;42.632;23.298;2023-09-19T09:54:13;9.60;;;7.70;;
13032;SDS011;6583;42.632;23.298;2023-09-19T09:56:56;10.98;;;7.90;;
13032;SDS011;6583;42.632;23.298;2023-09-19T10:02:21;11.45;;;8.15;;
13032;SDS011;6583;42.632;23.298;2023-09-19T10:04:54;9.13;;;8.13;;
13032;SDS011;6583;42.632;23.298;2023-09-19T10:07:40;11.57;;;7.90;;
13032;SDS011;6583;42.632;23.298;2023-09-19T10:10:12;10.07;;;7.63;;
13032;SDS011;6583;42.632;23.298;2023-09-19T10:12:43;11.88;;;7.22;;
13032;SDS011;6583;42.632;23.298;2023-09-19T10:15:11;11.68;;;7.45;;
13032;SDS011;6583;42.632;23.298;2023-09-19T10:17:40;9.80;;;7.93;;
13032;SDS011;6583;42.632;23.298;2023-09-19T10:20:11;8.93;;;7.25;;
13032;SDS011;6583;42.632;23.298;2023-09-19T10:22:52;9.50;;;7.85;;
13032;SDS011;6583;42.632;23.298;2023-09-19T10:25:24;9.13;;;7.25;;
13032;SDS011;6583;42.632;23.298;2023-09-19T10:27:55;10.57;;;7.40;;
13032;SDS011;6583;42.632;23.298;2023-09-19T10:30:23;10.13;;;7.45;;
13032;SDS011;6583;42.632;23.298;2023-09-19T10:32:55;8.75;;;7.22;;
13032;SDS011;6583;42.632;23.298;2023-09-19T10:35:26;9.85;;;7.38;;
13032;SDS011;6583;42.632;23.298;2023-09-19T10:37:54;10.93;;;7.30;;
13032;SDS011;6583;42.632;23.298;2023-09-19T10:40:23;10.88;;;6.88;;
13032;SDS011;6583;42.632;23.298;2023-09-19T10:42:58;9.07;;;6.97;;
13032;SDS011;6583;42.632;23.298;2023-09-19T10:45:28;10.75;;;6.85;;
13032;SDS011;6583;42.632;23.298;2023-09-19T10:47:56;9.10;;;7.05;;
13032;SDS011;6583;42.632;23.298;2023-09-19T10:50:23;8.85;;;7.00;;
13032;SDS011;6583;42.632;23.298;2023-09-19T10:52:51;8.55;;;6.90;;
13032;SDS011;6583;42.632;23.298;2023-09-19T10:55:25;7.90;;;6.97;;
13032;SDS011;6583;42.632;23.298;2023-09-19T10:57:55;12.25;;;7.13;;
13032;SDS011;6583;42.632;23.298;2023-09-19T11:00:52;8.30;;;6.75;;
13032;SDS011;6583;42.632;23.298;2023-09-19T11:03:20;9.25;;;7.30;;
13032;SDS011;6583;42.632;23.298;2023-09-19T11:06:09;10.73;;;7.25;;
13032;SDS011;6583;42.632;23.298;2023-09-19T11:08:51;11.27;;;7.40;;
13032;SDS011;6583;42.632;23.298;2023-09-19T11:11:40;10.70;;;7.40;;
13032;SDS011;6583;42.632;23.298;2023-09-19T11:14:14;7.75;;;6.75;;
13032;SDS011;6583;42.632;23.298;2023-09-19T11:20:17;9.52;;;7.20;;
13032;SDS011;6583;42.632;23.298;2023-09-19T11:25:47;9.85;;;7.18;;
13032;SDS011;6583;42.632;23.298;2023-09-19T11:28:27;8.88;;;7.13;;
13032;SDS011;6583;42.632;23.298;2023-09-19T11:30:56;9.73;;;7.20;;
13032;SDS011;6583;42.632;23.298;2023-09-19T11:33:24;11.55;;;7.28;;
13032;SDS011;6583;42.632;23.298;2023-09-19T11:36:01;7.40;;;6.28;;
13032;SDS011;6583;42.632;23.298;2023-09-19T11:41:38;9.70;;;6.57;;
13032;SDS011;6583;42.632;23.298;2023-09-19T11:46:58;11.60;;;6.80;;
13032;SDS011;6583;42.632;23.298;2023-09-19T11:49:29;9.20;;;7.03;;
13032;SDS011;6583;42.632;23.298;2023-09-19T11:51:58;10.43;;;7.32;;
13032;SDS011;6583;42.632;23.298;2023-09-19T11:54:30;9.40;;;6.93;;
13032;SDS011;6583;42.632;23.298;2023-09-19T11:56:58;11.73;;;6.60;;
13032;SDS011;6583;42.632;23.298;2023-09-19T11:59:26;10.38;;;6.82;;
13032;SDS011;6583;42.632;23.298;2023-09-19T12:01:55;9.25;;;6.70;;
13032;SDS011;6583;42.632;23.298;2023-09-19T12:04:36;11.23;;;6.70;;
13032;SDS011;6583;42.632;23.298;2023-09-19T12:07:05;12.52;;;7.18;;
13032;SDS011;6583;42.632;23.298;2023-09-19T12:09:37;7.38;;;6.68;;
13032;SDS011;6583;42.632;23.298;2023-09-19T12:12:06;9.55;;;6.57;;
13032;SDS011;6583;42.632;23.298;2023-09-19T12:14:34;9.43;;;6.70;;
13032;SDS011;6583;42.632;23.298;2023-09-19T12:17:01;8.25;;;6.40;;
13032;SDS011;6583;42.632;23.298;2023-09-19T12:19:28;10.50;;;6.90;;
13032;SDS011;6583;42.632;23.298;2023-09-19T12:21:56;9.27;;;6.65;;
13032;SDS011;6583;42.632;23.298;2023-09-19T12:24:26;9.75;;;7.18;;
13032;SDS011;6583;42.632;23.298;2023-09-19T12:26:59;9.20;;;6.85;;
13032;SDS011;6583;42.632;23.298;2023-09-19T12:29:26;7.93;;;6.95;;
13032;SDS011;6583;42.632;23.298;2023-09-19T12:31:56;7.53;;;6.50;;
13032;SDS011;6583;42.632;23.298;2023-09-19T12:34:25;9.63;;;6.60;;
13032;SDS011;6583;42.632;23.298;2023-09-19T12:37:05;9.35;;;6.60;;
13032;SDS011;6583;42.632;23.298;2023-09-19T12:39:38;6.70;;;6.07;;
13032;SDS011;6583;42.632;23.298;2023-09-19T12:42:07;7.25;;;6.55;;
13032;SDS011;6583;42.632;23.298;2023-09-19T12:44:36;7.20;;;6.30;;
13032;SDS011;6583;42.632;23.298;2023-09-19T12:47:14;8.07;;;6.55;;
13032;SDS011;6583;42.632;23.298;2023-09-19T12:52:35;8.68;;;6.43;;
13032;SDS011;6583;42.632;23.298;2023-09-19T12:55:04;10.70;;;7.13;;
13032;SDS011;6583;42.632;23.298;2023-09-19T12:57:32;8.00;;;6.60;;
13032;SDS011;6583;42.632;23.298;2023-09-19T13:00:00;6.85;;;6.05;;
13032;SDS011;6583;42.632;23.298;2023-09-19T13:02:27;7.03;;;6.10;;
13032;SDS011;6583;42.632;23.298;2023-09-19T13:04:53;6.63;;;6.03;;
13032;SDS011;6583;42.632;23.298;2023-09-19T13:07:40;7.90;;;6.68;;
13032;SDS011;6583;42.632;23.298;2023-09-19T13:10:10;8.23;;;6.80;;
13032;SDS011;6583;42.632;23.298;2023-09-19T13:12:41;9.82;;;6.63;;
13032;SDS011;6583;42.632;23.298;2023-09-19T13:15:13;8.68;;;6.53;;
13032;SDS011;6583;42.632;23.298;2023-09-19T13:17:45;8.70;;;6.00;;
13032;SDS011;6583;42.632;23.298;2023-09-19T13:20:23;6.63;;;6.03;;
13032;SDS011;6583;42.632;23.298;2023-09-19T13:22:53;7.10;;;6.38;;
13032;SDS011;6583;42.632;23.298;2023-09-19T13:25:25;7.15;;;6.10;;
13032;SDS011;6583;42.632;23.298;2023-09-19T13:27:55;7.43;;;5.93;;
13032;SDS011;6583;42.632;23.298;2023-09-19T13:30:23;8.35;;;5.88;;
13032;SDS011;6583;42.632;23.298;2023-09-19T13:32:51;7.40;;;5.45;;
13032;SDS011;6583;42.632;23.298;2023-09-19T13:35:18;6.75;;;6.03;;
13032;SDS011;6583;42.632;23.298;2023-09-19T13:37:46;6.65;;;5.93;;
13032;SDS011;6583;42.632;23.298;2023-09-19T13:40:14;10.73;;;6.32;;
13032;SDS011;6583;42.632;23.298;2023-09-19T13:42:42;8.32;;;6.07;;
13032;SDS011;6583;42.632;23.298;2023-09-19T13:45:09;6.78;;;6.18;;
13032;SDS011;6583;42.632;23.298;2023-09-19T13:47:37;6.50;;;5.88;;
13032;SDS011;6583;42.632;23.298;2023-09-19T13:50:04;7.13;;;5.95;;
13032;SDS011;6583;42.632;23.298;2023-09-19T13:52:32;7.13;;;5.53;;
13032;SDS011;6583;42.632;23.298;2023-09-19T13:55:00;7.55;;;5.82;;
13032;SDS011;6583;42.632;23.298;2023-09-19T13:57:26;7.28;;;6.05;;
13032;SDS011;6583;42.632;23.298;2023-09-19T13:59:55;11.02;;;5.90;;
13032;SDS011;6583;42.632;23.298;2023-09-19T14:02:22;6.53;;;5.57;;
13032;SDS011;6583;42.632;23.298;2023-09-19T14:04:49;7.60;;;5.78;;
13032;SDS011;6583;42.632;23.298;2023-09-19T14:07:16;6.32;;;5.65;;
13032;SDS011;6583;42.632;23.298;2023-09-19T14:09:45;8.18;;;6.13;;
13032;SDS011;6583;42.632;23.298;2023-09-19T14:12:12;6.63;;;5.90;;
13032;SDS011;6583;42.632;23.298;2023-09-19T14:14:38;8.10;;;5.75;;
13032;SDS011;6583;42.632;23.298;2023-09-19T14:17:07;6.95;;;5.82;;
13032;SDS011;6583;42.632;23.298;2023-09-19T14:19:34;8.88;;;5.85;;
13032;SDS011;6583;42.632;23.298;2023-09-19T14:22:01;6.50;;;5.80;;
13032;SDS011;6583;42.632;23.298;2023-09-19T14:24:32;8.00;;;6.57;;
13032;SDS011;6583;42.632;23.298;2023-09-19T14:26:59;6.95;;;6.00;;
13032;SDS011;6583;42.632;23.298;2023-09-19T14:29:25;6.60;;;5.97;;
13032;SDS011;6583;42.632;23.298;2023-09-19T14:31:53;9.48;;;5.95;;
13032;SDS011;6583;42.632;23.298;2023-09-19T14:34:23;8.80;;;5.93;;
13032;SDS011;6583;42.632;23.298;2023-09-19T14:36:50;7.50;;;6.00;;
13032;SDS011;6583;42.632;23.298;2023-09-19T14:39:17;6.88;;;5.90;;
13032;SDS011;6583;42.632;23.298;2023-09-19T14:41:44;8.45;;;6.22;;
13032;SDS011;6583;42.632;23.298;2023-09-19T14:44:11;7.10;;;5.95;;
13032;SDS011;6583;42.632;23.298;2023-09-19T14:46:38;6.75;;;6.15;;
13032;SDS011;6583;42.632;23.298;2023-09-19T14:49:04;9.25;;;5.75;;
13032;SDS011;6583;42.632;23.298;2023-09-19T14:51:33;9.20;;;6.03;;
13032;SDS011;6583;42.632;23.298;2023-09-19T14:54:00;8.95;;;6.45;;
13032;SDS011;6583;42.632;23.298;2023-09-19T14:56:28;7.65;;;6.10;;
13032;SDS011;6583;42.632;23.298;2023-09-19T14:58:56;7.28;;;6.30;;
13032;SDS011;6583;42.632;23.298;2023-09-19T15:01:22;7.50;;;6.40;;
13032;SDS011;6583;42.632;23.298;2023-09-19T15:03:49;7.80;;;6.07;;
13032;SDS011;6583;42.632;23.298;2023-09-19T15:06:16;7.53;;;6.18;;
13032;SDS011;6583;42.632;23.298;2023-09-19T15:08:46;8.70;;;6.55;;
13032;SDS011;6583;42.632;23.298;2023-09-19T15:11:13;9.25;;;6.53;;
13032;SDS011;6583;42.632;23.298;2023-09-19T15:13:41;7.00;;;6.15;;
13032;SDS011;6583;42.632;23.298;2023-09-19T15:16:09;7.63;;;6.15;;